Airfield :
LOGIN :

Register | Disclaimer

   EN    FR    IT 

 










Legend :    VFR   Marginal VFR   IFR   Intensive IFR   Very Intensive IFR
Visi :
Ceiling :
>= 8 km
>= 3000ft
5 to 8 km
1000 to 3000 ft
1500m to 5 km
500 to 1000 ft
800 to 1500m
200 to 500 ft
< 800m
< 200 ft
Symbols :   Thunderstorms  Fog  Heavy snow  Heavy precipitations  Wind > 20 kt
SIGMETs :     Misc.  Thunderstorms  Icing  Turbulence  Mountain Waves  Volcanic Ashes






- Airport Elevation : 362 ft
- IATA code : WAW


EPWA - Warsaw Okecie

CURRENT METAR :
  • 222200Z 34006KT 9999 VCTS SCT060CB 22/20 Q1013 RETSRA NOSIG

EXPIRED METARs :
  • 222130Z 33004KT 290V010 9999 -TSRA SCT060CB 21/20 Q1013 RESHRA TEMPO TSRA
  • 222100Z 36006KT 330V030 9999 SHRA SCT060CB 22/20 Q1012 RETSRA BECMG NSW
  • 222030Z VRB02KT 9999 -TSRA SCT050CB 21/20 Q1013 TEMPO TSRA
  • 222000Z 09003KT CAVOK 22/20 Q1012 TEMPO 3000 TSRA
  • 221930Z 11007KT 070V150 CAVOK 22/20 Q1012 NOSIG

TAF TAF EPWA
Valid from the 22 at 21:00 until the 23 at 21:00 UTC


222030Z 2221/2321 VRB04KT CAVOK
PROB40
TEMPO 2221/2223 4000 TSRA BKN040CB
PROB40 2300/2306 BKN005
BECMG 2305/2307 29010KT
TEMPO 2311/2318 -SHRA BKN040CB
PROB30
TEMPO 2314/2318 TSRA



MET'MAP, your aeronautical weather chart ! - Copyright ORBIFLY December 2007 - Disclaimer

ORBIFLY MET'MAP TEAM :

Programming & Development : Alexandra Zaïnal
Concept & original design : Baudouin d'Aumeries
Assistance for programming : Marc-Olivier Méhu
Technical & hardware support : Manuel Goepfert

Contact : metmap@orbifly.com




SOURCES & CREDITS :

   NOAA